Teruel, Spain

7:01 PM CET en Marzo 24, 2017 (GMT +0100)
Barrio Alto TORRIJAS | | Change Station

Alt 40 ft 40.02 °N, 0.95 °W | Updated 13 seconds ago

Despejado
Despejado
30.7 ° F
Sensación térmica 31 ° F
N
0.0
Viento Variable Viento desde OSO
Gusts 0.0 mph

Hoy
Alta -- | Baja -- ° F
--% Posibilidad de precipitaciones
Ayer
Alta -- | Baja -- ° F
Precip. -- pul
Presión 29.89 pul
Visibilidad -9999.0 Millas
Nubes
Vientos helados 31 ° F
Punto de rocío 28 ° F
Humedad 89%
Precipitaciones 0.00 pul
Espesor de la nieve No disponible.
7:01 AM 7:20 PM
Creciente menguante, 14% visible
METAR LETL 241730Z AUTO 10007KT 070V130 CAVOK 05/M01 Q1012
Presión 29.89 pul
Visibilidad -9999.0 Millas
Nubes
Vientos helados 31 ° F
Punto de rocío 28 ° F
Humedad 89%
Precipitaciones 0.00 pul
Espesor de la nieve No disponible.
7:01 AM 7:20 PM
Creciente menguante, 14% visible
METAR LETL 241730Z AUTO 10007KT 070V130 CAVOK 05/M01 Q1012

Get Severe Weather Alerts

Thanks for signing up!

Be on the lookout for a verification email in your inbox.

You'll start receiving the daily forecast at 8 AM.

×

10-Day Weather Forecast

×

Almanac

Astronomía

Mar. 24, 2017 Salida Puesta
Hora real
Crepúsculo civil
Crepúsculo náutico
Crepúsculo astronómico
Luna
Horas de luz
Horas de luz
Tomorrow will be .
, % of the Moon is Illuminated

Extremos de hoy

Máximos del país Bajas del país

Community

WunderPhotos

Upload Photos

1,962,540 ¡fotos cargadas!

WunderBlog® & News

Nearby

Calidad del aire

  Calidad del aire Índice AQ Contaminante
Not available.

Grosos de nieve

Estación Profundido Altura

Actividad de terremotos

Ciudad Distance Mag. Tiempo y dato
Magnitud mínima muestra es 2,5.

Actividad de terremotos

Ciudad Distance Mag. Tiempo y dato
Magnitud mínima muestra es 2,5.

Temperaturas de aguas costeras

Lugar Temperatura

Stations

Estaciones meteorológicas cercanas

Ubicación de la estación Temp. Vientos helados Punto de rocío Humedad Viento Precip. Alt Actualizado Tipo